Etusivu
METAR-TAF:

METAR-TAF

Lentoasemat :

Wallis, Ranska

Leveyspiiri: 13-14S, Pituuspiiri: 176-10W, korkeus merenpinnasta: 23 m

Tämänhetkinen sää

Tämä raportti tehtiin 10 tuntia ja 37 minuuttia sitten, kello 05.00 UTC
Tuuli 7 kn idästä/kaakosta, vaihdellen idän ja etelän/kaakon välillä
Lämpötila 28°C
Kosteus 70%
Ilmanpaine 1011 hPa
Näkyvyys 10 km tai enemmän

METAR: NLWW 210500Z AUTO 12007KT 090V150 9999 SCT025/// BKN048/// BKN064/// 28/22 Q1011 TEMPO 4000 SHRA FEW020TCU

Aika: 03:37 (15:37 UTC)

Sääennuste

Tämä raportti tehtiin 4 tuntia ja 37 minuuttia sitten, kello 11.00 UTC
Ennuste voimassa 21. päivästä klo 12 UTC - 22. päivään klo 12 UTC
Tuuli 8 kn idästä/kaakosta
Näkyvyys 10 km tai enemmän
Hajonneita pilviä 2000 ft:n korkeudessa
Ajoittain
22. päivästä klo 02 UTC - 22. päivään klo 09 UTC
Näkyvyys: 4500 m
Muutamia pilviä 1800 ft:n korkeudessa, Kasvava cumulus-pilvi.
vesikuuroja

TAF: NLWW 211100Z 2112/2212 12008KT 9999 BKN020 TEMPO 2202/2209 4500 SHRA FEW018TCU

Säähavainnot ja -ennusteet yli 4000 lentoasemalta (METAR- ja TAF-raportit).

Käytössä olevat sääasemat on merkitty karttaan keltaisilla ja punaisilla pisteillä.

Aseta hiiri pisteen päälle nähdäksesi sääaseman nimen.

Klikkaa sitten nähdäksesi säähavainnot ja -ennusteet.

Kartan vaihtaminen: klikkaa mustalla rastilla varustettuja vihreitä pisteitä, niin voit zoomata sisään; viivalla varustettua vihreää pistettä, niin voit zoomata ulos tai vihreitä nuolia, niin pääset viereisille kartoille.


METAR-TAF: